x

Buoy I01 - Eastern Maine Shelf (44034) Wave Buoy

6:04 - Sun 7th Feb 2016 All times are EST. -5 hours from GMT.

  • Sig Wave height 2.6ft
  • Peak Period 6s
  • Wind
    13mph, 18mph gusts
  • Sea Temp 42°f
  • Aire Temp 38°f
  • Sea Pressure 1021.7mb
  • Buoy I01 - Eastern Maine Shelf
  • Buoy I01 - Eastern Maine Shelf

More Historic Weather Station data

Upgrade to MSW Pro to gain access to the past 30 days of data for over 8000 Wavebouys and Weather Stations around the globe.

Join Pro

Comparision Forecast

View Surf forecast
   
dom 02/07 6:04 2.5ft 6s 13 18 mph 1021.7mb 42f 38f
5:04 3.5ft 11s 16 20 mph 1021.1mb 41f 38f
4:04 3.5ft 6s 11 13 mph 1021.4mb 41f 38f
3:04 3.5ft 5s 13 16 mph 1021.5mb 41f 37f
2:04 4ft 6s 13 16 mph 1020.8mb 41f 37f
1:04 4ft 6s 16 18 mph 1020.2mb 41f 39f
12:04 4.5ft 6s 13 16 mph 1019mb 42f 39f
11:04 5.5ft 8s 13 16 mph 1019.4mb 42f 38f
10:04 5ft 6s 16 18 mph 1019.4mb 42f 38f
9:04 5.5ft 6s 18 20 mph 1018.9mb 42f 38f
8:04 6ft 6s 18 22 mph 1018.9mb 42f 38f
7:04 6ft 6s 25 29 mph 1018.2mb 41f 39f
6:04 6.5ft 5s 22 27 mph 1017.8mb 41f 39f
5:04 6.5ft 6s 20 25 mph 1017.9mb 41f 39f
4:04 6ft 5s 25 27 mph 1017.9mb 42f 40f
3:04 8ft 8s 22 29 mph 1018.4mb 42f 40f
2:04 7ft 6s 25 31 mph 1019.2mb 42f 40f
1:04 7ft 5s 27 31 mph 1019.5mb 42f 40f
12:04 6.5ft 6s 25 29 mph 1020.5mb 41f 39f
sáb 02/06 11:04 6ft 6s 25 29 mph 1020.9mb 41f 39f
10:04 7ft 6s 25 31 mph 1021.5mb 41f 39f
9:04 6ft 6s 27 31 mph 1021.9mb 42f 39f
8:04 6ft 5s 27 34 mph 1022.2mb 41f 39f
7:04 6ft 5s 27 34 mph 1022.6mb 41f 38f
6:04 7ft 5s 25 31 mph 1022.8mb 42f 38f
5:04 6ft 5s 25 31 mph 1022.9mb 42f 38f
4:04 4.5ft 5s 25 29 mph 1023.2mb 42f 37f
3:04 4ft 5s 22 27 mph 1023.6mb 42f 36f
2:04 5ft 11s 22 29 mph 1023.6mb 42f 34f
1:04 5ft 11s 20 25 mph 1024.2mb 42f 33f
12:04 4ft 11s 16 18 mph 1024.6mb 42f 31f
11:04 4ft 11s 13 16 mph 1025.3mb 42f 28f
10:04 3.5ft 11s 16 20 mph 1025.9mb 42f 28f
9:04  -   -  13 16 mph 1025.6mb 41f 26f
8:04  -   -  13 18 mph 1025.4mb 42f 25f
7:04 4ft 11s 18 22 mph 1024.7mb 42f 24f
6:04 2.5ft 4s 20 25 mph 1024mb 42f 24f
5:04 3.5ft 4s 20 27 mph 1023.5mb 42f 24f
4:04 3ft 4s 22 29 mph 1022.5mb 42f 23f
3:04 3.5ft 4s 22 29 mph 1021.6mb 42f 23f
2:04 3ft 4s 20 25 mph 1021.5mb 42f 23f
1:04 4ft 4s 22 29 mph 1020.3mb 42f 24f
12:04 4.5ft 5s 25 34 mph 1019.3mb 42f 24f
vie 02/05 11:04 5ft 5s 29 38 mph 1016.9mb 42f 25f
10:04 5ft 5s 34 51 mph 1015.9mb 42f 27f
9:04 5.5ft 5s 29 40 mph 1014.1mb 42f 28f
8:04 6ft 5s 29 38 mph 1012.4mb 42f 29f
7:04 6ft 5s 27 38 mph 1010.9mb 42f 29f
6:04 6ft 5s 27 38 mph - 42f 31f
5:04 5.5ft 5s 34 38 mph - 42f 32f
4:04 5.5ft 5s 29 38 mph 1011mb 42f 32f
3:04 5ft 4s 29 34 mph 1010.1mb 42f 32f
2:04 5ft 5s 29 36 mph 1009mb 42f 33f
1:04  -   -  29 34 mph 1011.2mb 42f 33f
12:04 6ft 11s 27 31 mph 1012.7mb 42f 33f
11:04 4ft 5s 25 31 mph 1015.4mb 42f 33f
10:04 5.5ft 11s 25 29 mph 1017.3mb 42f 33f
9:04 5.5ft 11s 25 29 mph 1016.5mb 43f 34f
8:04 5ft 11s 20 25 mph 1017.5mb 43f 35f
7:04 5.5ft 11s 18 20 mph 1017.3mb 43f 35f
6:04 5.5ft 8s 18 22 mph 1017.3mb 43f 35f
5:04 6.5ft 8s 13 18 mph 1018.2mb 43f 36f
4:04 5.5ft 8s 13 16 mph 1018.1mb 43f 37f
3:04 5ft 8s 18 20 mph 1017.8mb 43f 39f
2:04 4.5ft 8s 11 13 mph 1018.9mb 43f 41f
1:04 4.5ft 8s 11 16 mph 1017.1mb 43f 42f
12:04 6ft 8s 11 13 mph 1017mb 43f 42f
jue 02/04 11:04 5ft 8s 13
mph
1017.1mb 43f 43f
10:04 5ft 8s 13 16 mph 1017.5mb 42f 43f
9:04 6ft 8s 9 13 mph 1017.9mb 42f 43f
8:04 6ft 8s 4 11 mph 1016.7mb 42f 43f
7:04 6ft 8s 4 7 mph 1015.9mb 42f 43f
6:04 5ft 8s 2 4 mph 1015.8mb 42f 43f
5:04 6ft 8s 4 7 mph 1014.4mb 42f 43f
4:04 7ft 8s 7
mph
1013.8mb 42f 44f
3:04 7ft 8s 4
mph
1012.7mb 42f 43f
2:04 7ft 8s 4
mph
1011.8mb 42f 43f
1:04 7.5ft 8s 4 7 mph 1011.9mb 42f 43f
12:04 8ft 8s 4 7 mph 1011.8mb 42f 43f
11:04 8ft 8s 7 9 mph 1012mb 42f 44f
10:04 9ft 8s 11 16 mph 1012mb 43f 45f
9:04 9.5ft 8s 18 20 mph 1011.2mb 43f 46f
8:04 11.5ft 8s 18 22 mph 1011.2mb 43f 46f
7:04 9ft 11s 18 22 mph 1010.8mb 43f 46f
6:04 10.5ft 11s 20 25 mph 1010.5mb 43f 46f
5:04 11ft 11s 20 27 mph 1010.3mb 43f 47f
4:04 12.5ft 8s 20 25 mph 1010.7mb 43f 46f
3:04 12ft 11s 20 22 mph 1011.1mb 42f 47f
2:04 15.5ft 11s 27 34 mph 1010.7mb 43f 48f
1:04 20.5ft 11s 36 45 mph 1009mb 43f 51f